Time;durP1;ratioP1;P1;durP2;ratioP2;P2;SDS_P1;SDS_P2;PMS_P1;PMS_P2;Temp;Humidity;BMP_temperature;BMP_pressure;BME280_temperature;BME280_humidity;BME280_pressure;Samples;Min_cycle;Max_cycle;Signal;HPM_P1;HPM_P2
2023/09/17 00:01:07;;;;;;;6.70;1.73;;;;;;;31.37;29.80;100609.66;5004212;28;20041;-75
2023/09/17 00:03:39;;;;;;;6.18;1.52;;;;;;;31.25;29.98;100603.25;4995293;28;20050;-73
2023/09/17 00:06:09;;;;;;;5.55;1.52;;;;;;;31.27;30.00;100608.50;5000822;28;20053;-71
2023/09/17 00:08:38;;;;;;;5.55;1.50;;;;;;;31.32;29.51;100609.09;4999224;28;20046;-72
2023/09/17 00:11:07;;;;;;;5.85;1.90;;;;;;;31.31;28.84;100608.22;5003168;28;20431;-72
2023/09/17 00:13:47;;;;;;;3.50;1.40;;;;;;;31.22;29.30;100594.53;4991899;28;20555;-72
2023/09/17 00:16:15;;;;;;;5.65;1.45;;;;;;;31.28;28.98;100603.03;5005758;28;20056;-73
2023/09/17 00:18:44;;;;;;;10.77;1.63;;;;;;;31.25;29.28;100607.72;5002239;28;20051;-73
2023/09/17 00:21:13;;;;;;;7.78;1.30;;;;;;;31.19;28.95;100610.75;5002347;28;20064;-72
2023/09/17 00:23:50;;;;;;;3.72;1.17;;;;;;;31.09;29.65;100607.78;4998776;28;20057;-70
2023/09/17 00:26:19;;;;;;;4.57;1.17;;;;;;;30.94;29.34;100612.19;4995620;28;20046;-71
2023/09/17 00:28:49;;;;;;;3.17;1.35;;;;;;;30.89;29.00;100603.59;5001836;28;20133;-74
2023/09/17 00:31:27;;;;;;;2.80;1.40;;;;;;;30.89;28.72;100603.59;5005225;28;20077;-72
2023/09/17 00:33:56;;;;;;;5.72;1.38;;;;;;;30.86;27.95;100601.97;4994007;28;20050;-74
2023/09/17 00:36:25;;;;;;;4.53;1.42;;;;;;;30.81;28.21;100603.13;4993449;28;20899;-72
2023/09/17 00:38:54;;;;;;;6.03;1.38;;;;;;;30.74;27.96;100601.75;5004546;28;20140;-71
2023/09/17 00:41:22;;;;;;;4.95;1.50;;;;;;;30.66;28.99;100604.88;5000096;28;20045;-71
2023/09/17 00:43:53;;;;;;;4.85;1.25;;;;;;;30.57;27.87;100603.56;4995931;28;20506;-72
2023/09/17 00:46:22;;;;;;;3.70;1.55;;;;;;;30.47;29.14;100610.41;5007167;28;20050;-73
2023/09/17 00:48:50;;;;;;;6.20;1.35;;;;;;;30.31;29.13;100620.22;5003925;28;20058;-73
2023/09/17 00:51:19;;;;;;;4.05;1.23;;;;;;;30.17;29.41;100623.56;5001014;28;20049;-72
2023/09/17 00:53:48;;;;;;;5.35;1.10;;;;;;;30.05;29.86;100620.66;5008100;28;20038;-75
2023/09/17 00:56:17;;;;;;;5.10;1.48;;;;;;;29.96;30.54;100626.47;5002832;28;20606;-73
2023/09/17 00:58:46;;;;;;;4.15;1.38;;;;;;;29.91;30.46;100627.66;4997329;28;20059;-72
2023/09/17 01:01:20;;;;;;;6.30;2.03;;;;;;;29.83;30.80;100625.41;4999971;28;20145;-71
2023/09/17 01:03:57;;;;;;;8.15;1.52;;;;;;;29.74;31.01;100621.41;4993772;28;20142;-72
2023/09/17 01:06:28;;;;;;;3.42;1.10;;;;;;;29.64;31.26;100631.69;5003119;28;20054;-71
2023/09/17 01:08:57;;;;;;;5.35;1.27;;;;;;;29.54;31.59;100629.56;4998077;28;20057;-73
2023/09/17 01:11:26;;;;;;;6.72;1.30;;;;;;;29.42;31.10;100631.91;5005474;28;20049;-72
2023/09/17 01:14:08;;;;;;;5.18;0.98;;;;;;;29.31;31.49;100634.25;4997384;28;20705;-74
2023/09/17 01:16:46;;;;;;;;;;;;;;;29.18;31.97;100641.13;5006335;28;20132;-74
2023/09/17 01:19:20;;;;;;;5.88;1.75;;;;;;;29.04;32.30;100636.47;4998992;28;19945;-75
2023/09/17 01:21:58;;;;;;;5.82;1.27;;;;;;;28.87;32.48;100642.63;4996483;28;20129;-74
2023/09/17 01:24:36;;;;;;;6.47;1.20;;;;;;;28.72;32.60;100648.69;4994786;28;20050;-74
2023/09/17 01:27:14;;;;;;;5.45;1.13;;;;;;;28.47;33.01;100654.31;4993463;28;20050;-76
2023/09/17 01:29:54;;;;;;;5.35;1.20;;;;;;;28.26;33.13;100653.47;5000812;28;20045;-76
2023/09/17 01:32:24;;;;;;;3.38;0.90;;;;;;;28.18;33.98;100661.81;5000518;28;20050;-74
2023/09/17 01:34:53;;;;;;;7.20;1.50;;;;;;;28.08;34.28;100655.16;5004640;28;20540;-75
2023/09/17 01:37:31;;;;;;;6.43;1.30;;;;;;;27.96;34.47;100659.25;5014455;28;20046;-75
2023/09/17 01:40:02;;;;;;;4.25;1.20;;;;;;;27.86;34.62;100663.25;5001600;28;20050;-74
2023/09/17 01:42:33;;;;;;;7.95;1.65;;;;;;;27.75;34.56;100663.69;5002162;28;20491;-75
2023/09/17 01:45:03;;;;;;;5.80;1.20;;;;;;;27.64;34.77;100669.44;5007894;28;20077;-76
2023/09/17 01:47:35;;;;;;;7.53;1.25;;;;;;;27.53;34.82;100671.69;5012309;28;20073;-72
2023/09/17 01:50:05;;;;;;;3.55;1.52;;;;;;;27.44;35.29;100666.78;5003588;28;20221;-74
2023/09/17 01:52:34;;;;;;;2.80;0.90;;;;;;;27.35;35.62;100670.69;5005642;28;20431;-74
2023/09/17 01:55:03;;;;;;;5.82;1.35;;;;;;;27.29;35.65;100669.16;5002598;28;20100;-74
2023/09/17 01:57:34;;;;;;;5.68;1.27;;;;;;;27.22;35.81;100675.66;4998148;28;20132;-74
2023/09/17 02:00:14;;;;;;;7.60;1.33;;;;;;;27.07;36.07;100670.91;5005209;28;20070;-73
2023/09/17 02:02:46;;;;;;;5.82;1.10;;;;;;;26.73;36.56;100673.16;5001831;28;20057;-73
2023/09/17 02:05:20;;;;;;;7.43;1.65;;;;;;;26.53;36.55;100670.34;5003568;28;20046;-75
2023/09/17 02:07:49;;;;;;;6.10;1.20;;;;;;;26.43;37.12;100680.44;4999971;28;20050;-74
2023/09/17 02:10:18;;;;;;;8.23;2.05;;;;;;;26.30;38.06;100671.22;5008481;28;20064;-74
2023/09/17 02:12:48;;;;;;;4.28;1.15;;;;;;;25.86;39.47;100663.94;4999007;28;20100;-74
2023/09/17 02:15:17;;;;;;;5.05;1.20;;;;;;;25.69;38.69;100672.47;5005967;28;20064;-74
2023/09/17 02:17:46;;;;;;;7.45;1.40;;;;;;;25.62;38.91;100676.25;5003064;28;20057;-74
2023/09/17 02:20:14;;;;;;;11.75;1.17;;;;;;;25.55;39.44;100674.72;5006210;28;20128;-73
2023/09/17 02:22:43;;;;;;;6.78;1.30;;;;;;;25.42;39.63;100681.34;5007384;28;21328;-74
2023/09/17 02:25:12;;;;;;;4.00;1.67;;;;;;;25.35;39.58;100682.47;5004186;28;20054;-74
2023/09/17 02:27:43;;;;;;;5.28;1.20;;;;;;;25.28;40.96;100687.94;5001816;28;20046;-76
2023/09/17 02:30:14;;;;;;;9.88;1.40;;;;;;;25.20;41.47;100695.31;5001163;28;20141;-74
2023/09/17 02:32:43;;;;;;;7.80;1.42;;;;;;;25.12;40.73;100691.97;4996857;28;20334;-74
2023/09/17 02:35:12;;;;;;;4.40;1.02;;;;;;;25.04;42.16;100700.19;4999721;28;20046;-74
2023/09/17 02:37:47;;;;;;;7.20;1.25;;;;;;;24.82;42.33;100694.69;5012596;28;20072;-74
2023/09/17 02:40:16;;;;;;;4.55;1.20;;;;;;;24.66;42.64;100709.28;5013273;28;20427;-74
2023/09/17 02:42:46;;;;;;;5.72;1.25;;;;;;;24.56;42.65;100721.06;5000369;28;20065;-73
2023/09/17 02:45:17;;;;;;;5.07;1.35;;;;;;;24.44;43.52;100720.47;5004060;28;20515;-73
2023/09/17 02:47:48;;;;;;;8.20;1.70;;;;;;;24.27;43.37;100722.72;5009319;28;20081;-73
2023/09/17 02:50:17;;;;;;;3.28;1.05;;;;;;;24.15;43.28;100731.00;5004136;28;20046;-75
2023/09/17 02:52:46;;;;;;;5.97;1.20;;;;;;;24.08;45.20;100729.41;5008208;28;20077;-75
2023/09/17 02:55:14;;;;;;;5.07;1.35;;;;;;;24.00;43.54;100730.47;5006643;28;20045;-74
2023/09/17 02:57:43;;;;;;;8.77;1.10;;;;;;;23.91;44.99;100735.13;4998515;28;20046;-74
2023/09/17 03:00:13;;;;;;;7.78;1.45;;;;;;;23.83;45.71;100743.28;5016856;28;20049;-75
2023/09/17 03:02:47;;;;;;;4.53;1.20;;;;;;;23.68;46.43;100744.47;4999591;28;20551;-75
2023/09/17 03:05:17;;;;;;;7.28;1.40;;;;;;;23.54;46.21;100742.19;5000600;28;20132;-75
2023/09/17 03:07:46;;;;;;;7.57;1.50;;;;;;;23.48;46.44;100747.63;4999145;28;20078;-74
2023/09/17 03:10:20;;;;;;;4.13;1.23;;;;;;;23.44;46.58;100745.97;5010262;28;20117;-75
2023/09/17 03:12:50;;;;;;;6.32;2.15;;;;;;;23.40;46.40;100747.78;4999457;28;20049;-75
2023/09/17 03:15:19;;;;;;;9.82;2.50;;;;;;;23.38;46.34;100754.00;4998044;28;20041;-76
2023/09/17 03:17:49;;;;;;;9.43;2.97;;;;;;;23.33;45.75;100751.47;4999765;28;20049;-75
2023/09/17 03:20:22;;;;;;;5.32;1.40;;;;;;;23.28;45.35;100755.16;5001846;28;20053;-75
2023/09/17 03:22:51;;;;;;;10.20;2.65;;;;;;;23.26;45.79;100764.88;5002630;28;20050;-75
2023/09/17 03:25:19;;;;;;;5.47;2.08;;;;;;;23.19;45.55;100762.38;5005845;28;20161;-75
2023/09/17 03:27:51;;;;;;;5.63;1.33;;;;;;;23.14;45.75;100771.31;5004152;28;20050;-75
2023/09/17 03:30:23;;;;;;;7.05;1.30;;;;;;;23.08;45.91;100769.66;5009339;28;20061;-74
2023/09/17 03:32:53;;;;;;;5.85;1.30;;;;;;;23.05;46.02;100780.28;4978602;28;20390;-75
2023/09/17 03:35:22;;;;;;;4.10;1.08;;;;;;;23.00;45.91;100788.28;4977192;28;20058;-77
2023/09/17 03:37:52;;;;;;;4.88;1.30;;;;;;;22.93;46.46;100791.03;4989902;28;20614;-74
2023/09/17 03:40:27;;;;;;;6.07;2.05;;;;;;;22.87;46.90;100797.34;4986142;28;20054;-75
2023/09/17 03:42:56;;;;;;;5.47;1.88;;;;;;;22.79;48.00;100800.16;4979007;28;20062;-74
2023/09/17 03:45:25;;;;;;;3.75;1.08;;;;;;;22.69;47.52;100806.47;4988794;28;20061;-74
2023/09/17 03:47:55;;;;;;;12.90;1.48;;;;;;;22.61;47.50;100803.16;4978641;28;20049;-75
2023/09/17 03:50:24;;;;;;;8.35;1.63;;;;;;;22.54;47.21;100801.50;4984814;28;20046;-75
2023/09/17 03:52:58;;;;;;;7.18;1.60;;;;;;;22.46;48.55;100800.78;4985180;28;20118;-76
2023/09/17 03:55:27;;;;;;;6.43;1.30;;;;;;;22.36;49.23;100806.25;4985955;28;20054;-75
2023/09/17 03:57:57;;;;;;;3.95;1.27;;;;;;;22.29;48.52;100809.03;4983716;28;20070;-73
2023/09/17 04:00:26;;;;;;;3.78;1.33;;;;;;;22.24;48.69;100810.84;4986302;28;20051;-74
2023/09/17 04:02:56;;;;;;;5.75;1.30;;;;;;;22.19;49.13;100818.81;4973718;28;20488;-75
2023/09/17 04:05:25;;;;;;;3.25;0.98;;;;;;;22.06;49.20;100818.16;4983963;28;20058;-74
2023/09/17 04:07:53;;;;;;;4.70;1.10;;;;;;;22.01;49.61;100819.13;4977969;28;20050;-73
2023/09/17 04:10:22;;;;;;;5.22;1.55;;;;;;;21.97;49.75;100818.31;4982113;28;20058;-73
2023/09/17 04:12:50;;;;;;;4.75;1.10;;;;;;;21.90;49.52;100833.34;4985125;28;20448;-73
2023/09/17 04:15:20;;;;;;;4.13;1.65;;;;;;;21.81;49.92;100841.41;4982413;28;20070;-74
2023/09/17 04:17:51;;;;;;;9.50;1.60;;;;;;;21.69;50.44;100850.38;4989173;28;20074;-74
2023/09/17 04:20:23;;;;;;;4.70;1.35;;;;;;;21.62;50.63;100850.47;4982899;28;20057;-73
2023/09/17 04:22:52;;;;;;;5.00;0.90;;;;;;;21.42;50.93;100862.16;4992275;28;20066;-72
2023/09/17 04:25:22;;;;;;;6.82;1.67;;;;;;;21.20;51.62;100861.53;4980753;28;20050;-73
2023/09/17 04:27:51;;;;;;;8.23;1.40;;;;;;;21.02;52.01;100859.13;4984013;28;20515;-74
2023/09/17 04:30:22;;;;;;;5.15;1.50;;;;;;;20.92;51.74;100861.00;4987348;28;20056;-73
2023/09/17 04:32:52;;;;;;;3.97;0.90;;;;;;;20.83;53.09;100866.34;5007626;28;20141;-75
2023/09/17 04:35:23;;;;;;;7.03;0.98;;;;;;;20.68;53.55;100860.38;5012306;28;20054;-73
2023/09/17 04:37:52;;;;;;;4.22;0.95;;;;;;;20.54;53.66;100867.50;5003271;28;20385;-73
2023/09/17 04:40:24;;;;;;;4.72;0.95;;;;;;;20.42;53.90;100867.63;5008491;28;20424;-75
2023/09/17 04:42:53;;;;;;;4.15;1.20;;;;;;;20.25;54.77;100857.28;5003462;28;20054;-74
2023/09/17 04:45:34;;;;;;;4.63;1.15;;;;;;;20.14;55.40;100859.97;5008033;28;20501;-73
2023/09/17 04:48:03;;;;;;;4.53;1.17;;;;;;;20.14;56.40;100873.13;5002410;28;20073;-73
2023/09/17 04:50:44;;;;;;;4.18;0.90;;;;;;;20.16;56.90;100865.19;5002078;28;20148;-73
2023/09/17 04:53:12;;;;;;;4.32;0.90;;;;;;;20.15;56.10;100872.22;5001950;28;20112;-74
2023/09/17 04:55:41;;;;;;;2.75;0.90;;;;;;;20.15;56.22;100872.22;5002760;28;20050;-74
2023/09/17 04:58:10;;;;;;;7.40;1.52;;;;;;;20.15;56.74;100869.59;5001967;28;20065;-74
2023/09/17 05:00:38;;;;;;;5.57;1.25;;;;;;;20.13;56.88;100875.75;5008065;28;20049;-73
2023/09/17 05:03:07;;;;;;;4.88;1.27;;;;;;;20.07;56.97;100876.69;5004039;28;20436;-73
2023/09/17 05:05:38;;;;;;;6.28;1.08;;;;;;;20.01;57.25;100874.09;5001922;28;20049;-73
2023/09/17 05:08:07;;;;;;;3.97;1.10;;;;;;;19.95;57.36;100889.88;5003562;28;20084;-73
2023/09/17 05:10:36;;;;;;;4.13;1.15;;;;;;;19.88;57.32;100899.56;5006054;28;20053;-73
2023/09/17 05:13:05;;;;;;;3.38;1.05;;;;;;;19.78;57.43;100890.88;5003157;28;20046;-73
2023/09/17 05:15:34;;;;;;;5.45;1.02;;;;;;;19.72;58.03;100898.78;5006471;28;20070;-72
2023/09/17 05:18:06;;;;;;;3.10;1.15;;;;;;;19.54;59.67;100898.84;5005167;28;20093;-73
2023/09/17 05:20:37;;;;;;;2.17;0.77;;;;;;;19.46;59.71;100906.75;5013969;28;20069;-73
2023/09/17 05:23:06;;;;;;;7.65;1.30;;;;;;;19.42;59.15;100912.91;5018684;28;20085;-73
2023/09/17 05:25:35;;;;;;;4.13;1.33;;;;;;;19.36;59.27;100913.81;5024066;28;20053;-72
2023/09/17 05:28:06;;;;;;;7.07;1.35;;;;;;;19.32;59.10;100922.56;5019154;28;20104;-72
2023/09/17 05:30:36;;;;;;;11.63;1.02;;;;;;;19.30;59.18;100926.94;5014881;28;20137;-74
2023/09/17 05:33:06;;;;;;;6.28;1.13;;;;;;;19.28;59.48;100931.31;5008599;28;20046;-73
2023/09/17 05:35:37;;;;;;;1.92;0.63;;;;;;;19.23;60.39;100931.34;5014474;28;20128;-74
2023/09/17 05:38:06;;;;;;;10.68;1.38;;;;;;;19.17;61.57;100931.38;5011185;28;20092;-74
2023/09/17 05:40:35;;;;;;;6.15;0.90;;;;;;;19.14;61.98;100938.38;5011757;28;20050;-73
2023/09/17 05:43:03;;;;;;;4.10;0.82;;;;;;;19.10;60.99;100949.75;5009579;28;20050;-73
2023/09/17 05:45:35;;;;;;;5.38;0.80;;;;;;;19.06;60.93;100938.41;5002729;28;20579;-75
2023/09/17 05:48:03;;;;;;;4.75;1.15;;;;;;;19.01;60.40;100934.91;5011194;28;20049;-74
2023/09/17 05:50:32;;;;;;;3.88;0.93;;;;;;;18.97;60.76;100941.91;5008772;28;20142;-74
2023/09/17 05:53:02;;;;;;;3.75;1.02;;;;;;;18.93;60.87;100945.41;5013457;28;20054;-75
2023/09/17 05:55:30;;;;;;;6.00;1.33;;;;;;;18.90;59.78;100944.53;5013086;28;20050;-74
2023/09/17 05:57:59;;;;;;;4.90;1.00;;;;;;;18.86;59.26;100941.06;5014047;28;20523;-74
2023/09/17 06:00:28;;;;;;;6.93;0.90;;;;;;;18.79;59.52;100939.31;5006474;28;20050;-73
2023/09/17 06:02:56;;;;;;;0.85;0.68;;;;;;;18.81;59.21;100943.69;5012760;28;20050;-73
2023/09/17 06:05:25;;;;;;;4.18;1.02;;;;;;;18.78;58.61;100940.19;5010996;28;20050;-74
2023/09/17 06:07:54;;;;;;;3.60;1.25;;;;;;;18.71;58.36;100935.78;5010324;28;20045;-72
2023/09/17 06:10:31;;;;;;;6.32;0.90;;;;;;;18.70;58.44;100934.06;5015090;28;20049;-73
2023/09/17 06:12:59;;;;;;;4.28;1.33;;;;;;;18.68;57.46;100936.66;5005846;28;20053;-74
2023/09/17 06:15:28;;;;;;;5.35;0.75;;;;;;;18.63;57.51;100941.91;5013943;28;20160;-73
2023/09/17 06:18:00;;;;;;;5.03;1.08;;;;;;;18.59;58.39;100948.03;5015690;28;20058;-73
2023/09/17 06:20:28;;;;;;;4.00;1.07;;;;;;;18.57;57.63;100952.41;5013924;28;20532;-74
2023/09/17 06:22:57;;;;;;;5.90;1.30;;;;;;;18.54;57.93;100949.78;5010376;28;20817;-75
2023/09/17 06:25:25;;;;;;;4.22;1.10;;;;;;;18.50;57.44;100952.41;5015921;28;20038;-74
2023/09/17 06:27:56;;;;;;;4.28;1.00;;;;;;;18.43;57.97;100967.25;5002057;28;20054;-74
2023/09/17 06:30:24;;;;;;;5.25;1.20;;;;;;;18.34;57.80;100967.25;5014340;28;20198;-73
2023/09/17 06:32:53;;;;;;;4.45;1.27;;;;;;;18.28;58.01;100967.22;5008038;28;20522;-73
2023/09/17 06:35:22;;;;;;;3.38;1.00;;;;;;;18.24;58.10;100965.50;5012573;28;20049;-74
2023/09/17 06:37:50;;;;;;;4.20;1.00;;;;;;;18.20;58.41;100980.31;5005794;28;20046;-73
2023/09/17 06:40:21;;;;;;;5.13;1.10;;;;;;;18.15;58.32;100980.31;5005003;28;20557;-72
2023/09/17 06:42:50;;;;;;;4.15;0.77;;;;;;;18.04;58.67;100979.41;5006308;28;20152;-74
2023/09/17 06:45:20;;;;;;;5.22;1.15;;;;;;;18.03;58.35;100982.91;5009587;28;20034;-72
2023/09/17 06:47:49;;;;;;;4.43;0.98;;;;;;;18.01;58.49;100992.50;5003729;28;20112;-73
2023/09/17 06:50:17;;;;;;;3.75;1.10;;;;;;;17.97;59.32;100995.97;5004867;28;20485;-72
2023/09/17 06:52:46;;;;;;;5.45;1.40;;;;;;;17.91;58.93;101001.19;5012767;28;20080;-74
2023/09/17 06:55:14;;;;;;;3.67;0.82;;;;;;;17.86;59.75;100995.94;5010102;28;20509;-72
2023/09/17 06:57:43;;;;;;;2.78;0.98;;;;;;;17.82;59.78;100995.91;5005609;28;20057;-73
2023/09/17 07:00:13;;;;;;;4.45;0.95;;;;;;;17.78;59.55;100997.63;5010421;28;20060;-73
2023/09/17 07:02:43;;;;;;;5.60;1.33;;;;;;;17.73;59.77;101005.47;5012609;28;20054;-73
2023/09/17 07:05:13;;;;;;;3.80;0.75;;;;;;;17.69;60.65;101000.22;5008220;28;20138;-72
2023/09/17 07:07:42;;;;;;;7.00;1.20;;;;;;;17.64;59.89;100999.31;5007518;28;20411;-73
2023/09/17 07:10:11;;;;;;;5.70;1.10;;;;;;;17.58;60.62;100990.56;5001984;28;20050;-73
2023/09/17 07:12:40;;;;;;;4.75;1.08;;;;;;;17.51;61.03;100991.41;5004769;28;20042;-73
2023/09/17 07:15:10;;;;;;;2.17;0.90;;;;;;;17.40;61.63;101000.94;5010862;28;20049;-74
2023/09/17 07:17:45;;;;;;;2.55;0.82;;;;;;;17.32;61.17;100998.28;5012341;28;20046;-74
2023/09/17 07:20:16;;;;;;;6.05;1.00;;;;;;;17.27;61.33;100994.78;5006905;28;20053;-74
2023/09/17 07:22:44;;;;;;;5.90;1.10;;;;;;;17.25;61.27;100996.50;5005485;28;20102;-73
2023/09/17 07:25:14;;;;;;;8.63;0.90;;;;;;;17.20;60.42;100992.97;5007712;28;20057;-73
2023/09/17 07:27:43;;;;;;;3.10;0.82;;;;;;;17.07;61.50;100988.56;5006107;28;20580;-73
2023/09/17 07:30:12;;;;;;;3.85;0.93;;;;;;;17.08;61.37;100988.53;5010084;28;20053;-74
2023/09/17 07:32:41;;;;;;;6.53;0.75;;;;;;;17.09;60.84;100998.16;5008230;28;20064;-73
2023/09/17 07:35:10;;;;;;;2.08;0.80;;;;;;;17.05;61.14;101001.59;5003468;28;20073;-73
2023/09/17 07:37:41;;;;;;;5.30;0.75;;;;;;;17.03;60.82;101005.06;5007071;28;20145;-74
2023/09/17 07:40:10;;;;;;;3.20;0.60;;;;;;;17.01;60.30;101012.03;5006237;28;20054;-73
2023/09/17 07:42:39;;;;;;;4.25;1.05;;;;;;;16.95;60.65;101012.88;5007776;28;20514;-74
2023/09/17 07:45:10;;;;;;;4.13;0.70;;;;;;;16.92;60.46;101023.28;5006667;28;20281;-73
2023/09/17 07:47:46;;;;;;;5.57;1.17;;;;;;;16.89;60.64;101018.91;5008851;28;20069;-73
2023/09/17 07:50:15;;;;;;;2.15;0.68;;;;;;;16.87;60.18;101020.63;5013491;28;20522;-73
2023/09/17 07:52:46;;;;;;;5.10;1.00;;;;;;;16.84;60.59;101020.63;5007019;28;20057;-74
2023/09/17 07:55:16;;;;;;;5.97;1.13;;;;;;;16.80;61.16;101016.22;5013038;28;20045;-73
2023/09/17 07:57:44;;;;;;;5.43;1.15;;;;;;;16.78;61.10;101015.31;5007816;28;20049;-73
2023/09/17 08:00:15;;;;;;;2.50;0.77;;;;;;;16.76;61.74;101011.81;5009741;28;20045;-73
2023/09/17 08:02:44;;;;;;;5.90;0.93;;;;;;;16.73;61.07;101012.66;5002932;28;20054;-72
2023/09/17 08:05:13;;;;;;;1.05;0.50;;;;;;;16.71;61.15;101018.75;5008247;28;20050;-73
2023/09/17 08:07:42;;;;;;;3.33;0.95;;;;;;;16.69;61.58;101012.63;5006717;28;20759;-72
2023/09/17 08:10:15;;;;;;;2.90;0.73;;;;;;;16.66;61.34;101010.84;5011093;28;20053;-72
2023/09/17 08:12:44;;;;;;;3.05;1.13;;;;;;;16.63;60.77;101010.84;5012114;28;20983;-72
2023/09/17 08:15:13;;;;;;;0.88;0.50;;;;;;;16.60;61.24;101010.78;5006161;28;20579;-72
2023/09/17 08:17:43;;;;;;;1.92;0.70;;;;;;;16.57;61.38;101007.31;5005072;28;20373;-74
2023/09/17 08:20:13;;;;;;;3.60;1.50;;;;;;;16.49;61.86;100997.66;5013805;28;20112;-73
2023/09/17 08:22:41;;;;;;;3.28;0.95;;;;;;;16.41;62.48;101011.50;5001907;28;20119;-75
2023/09/17 08:25:12;;;;;;;8.00;1.70;;;;;;;16.25;63.87;101006.13;5006448;28;20040;-73
2023/09/17 08:27:41;;;;;;;4.82;1.08;;;;;;;16.24;64.68;101017.44;5006876;28;20077;-74
2023/09/17 08:30:12;;;;;;;8.15;0.90;;;;;;;16.19;65.05;101016.50;5002988;28;20061;-74
2023/09/17 08:32:41;;;;;;;2.50;0.70;;;;;;;16.17;65.13;101017.34;5005023;28;20117;-74
2023/09/17 08:35:11;;;;;;;3.60;1.10;;;;;;;16.15;65.91;101024.28;4999537;28;20041;-73
2023/09/17 08:37:40;;;;;;;6.68;0.77;;;;;;;16.13;66.73;101025.16;5004654;28;20069;-72
2023/09/17 08:40:14;;;;;;;2.83;0.82;;;;;;;16.09;66.05;101023.34;5011541;28;20050;-73
2023/09/17 08:42:44;;;;;;;2.80;0.80;;;;;;;16.07;66.60;101022.44;4998154;28;20048;-73
2023/09/17 08:45:15;;;;;;;6.05;1.02;;;;;;;16.02;66.40;101029.38;4997639;28;20076;-74
2023/09/17 08:47:43;;;;;;;5.65;1.67;;;;;;;15.98;66.67;101032.78;5007570;28;20114;-73
2023/09/17 08:50:13;;;;;;;3.60;1.10;;;;;;;15.95;66.02;101030.16;5007784;28;20053;-73
2023/09/17 08:52:44;;;;;;;2.50;0.63;;;;;;;15.91;65.82;101028.34;5011064;28;20053;-74
2023/09/17 08:55:18;;;;;;;6.20;1.05;;;;;;;15.88;65.79;101039.63;5002043;28;20054;-74
2023/09/17 08:58:00;;;;;;;3.55;1.17;;;;;;;15.86;65.63;101040.47;5005541;28;20046;-75
2023/09/17 09:00:31;;;;;;;3.00;0.80;;;;;;;15.79;65.90;101039.53;5002978;28;20042;-75
2023/09/17 09:03:03;;;;;;;3.45;0.75;;;;;;;15.73;65.05;101049.00;4997188;28;20038;-74
2023/09/17 09:05:35;;;;;;;5.10;0.85;;;;;;;15.70;66.83;101037.66;5007451;28;20100;-73
2023/09/17 09:08:04;;;;;;;3.10;0.90;;;;;;;15.70;68.45;101035.06;5004222;28;20094;-73
2023/09/17 09:10:34;;;;;;;3.15;0.82;;;;;;;15.68;67.19;101035.88;5007132;28;20042;-73
2023/09/17 09:13:03;;;;;;;1.50;0.77;;;;;;;15.65;68.20;101031.50;5001934;28;20053;-73
2023/09/17 09:15:32;;;;;;;1.95;0.85;;;;;;;15.64;67.59;101039.28;5005209;28;20625;-73
2023/09/17 09:18:08;;;;;;;4.80;1.02;;;;;;;15.59;67.26;101044.44;5001763;28;20053;-72
2023/09/17 09:20:40;;;;;;;4.68;0.82;;;;;;;15.54;67.22;101051.34;5003711;28;20097;-73
2023/09/17 09:23:09;;;;;;;5.03;1.10;;;;;;;15.49;67.41;101051.28;5006934;28;20530;-74
2023/09/17 09:25:40;;;;;;;9.18;0.88;;;;;;;15.48;67.79;101048.63;5006706;28;20515;-73
2023/09/17 09:28:08;;;;;;;7.82;1.05;;;;;;;15.46;68.04;101051.25;5006044;28;20078;-74
2023/09/17 09:30:38;;;;;;;1.50;0.82;;;;;;;15.45;68.02;101049.47;5004007;28;20050;-74
2023/09/17 09:33:08;;;;;;;4.63;0.77;;;;;;;15.45;68.52;101049.47;4982381;28;20521;-74
2023/09/17 09:35:36;;;;;;;3.45;0.98;;;;;;;15.45;67.27;101051.22;4987380;28;20051;-73
2023/09/17 09:38:07;;;;;;;5.10;1.48;;;;;;;15.42;67.06;101040.75;4984993;28;20061;-71
2023/09/17 09:40:37;;;;;;;3.65;0.90;;;;;;;15.39;67.32;101044.19;4983995;28;20102;-73
2023/09/17 09:43:17;;;;;;;5.88;1.52;;;;;;;15.35;67.90;101041.50;4985300;28;20459;-73
2023/09/17 09:45:49;;;;;;;5.05;1.13;;;;;;;15.31;68.24;101039.72;4983318;28;20047;-73
2023/09/17 09:48:18;;;;;;;4.88;1.23;;;;;;;15.23;68.64;101037.88;4989456;28;20086;-73
2023/09/17 09:50:48;;;;;;;3.47;0.88;;;;;;;15.22;68.73;101040.44;4989580;28;20121;-74
2023/09/17 09:53:16;;;;;;;2.75;0.90;;;;;;;15.19;69.60;101040.41;4986087;28;20078;-73
2023/09/17 09:55:45;;;;;;;2.28;1.35;;;;;;;15.16;70.08;101040.34;4982306;28;20050;-73
2023/09/17 09:58:16;;;;;;;5.00;1.20;;;;;;;15.16;69.72;101043.81;4983225;28;20055;-74
2023/09/17 10:00:46;;;;;;;4.13;1.00;;;;;;;15.15;69.05;101039.47;4982955;28;20039;-74
2023/09/17 10:03:17;;;;;;;4.22;1.00;;;;;;;15.13;68.45;101035.09;4981063;28;20047;-73
2023/09/17 10:05:48;;;;;;;5.47;1.08;;;;;;;15.06;69.37;101037.59;4980516;28;20129;-74
2023/09/17 10:08:18;;;;;;;8.40;1.67;;;;;;;14.96;70.45;101042.66;4987370;28;20520;-74
2023/09/17 10:10:49;;;;;;;4.00;1.02;;;;;;;14.93;70.42;101037.38;4985460;28;20069;-73
2023/09/17 10:13:19;;;;;;;1.15;0.70;;;;;;;14.89;71.01;101046.88;4989584;28;20046;-73
2023/09/17 10:15:48;;;;;;;4.95;1.10;;;;;;;14.88;70.38;101048.59;4987831;28;20073;-73
2023/09/17 10:18:19;;;;;;;1.98;1.27;;;;;;;14.85;72.45;101037.25;4987068;28;20563;-74
2023/09/17 10:20:51;;;;;;;2.58;0.90;;;;;;;14.83;71.86;101037.22;4987488;28;20153;-73
2023/09/17 10:23:21;;;;;;;2.35;0.60;;;;;;;14.80;72.06;101034.59;4986626;28;20050;-73
2023/09/17 10:25:50;;;;;;;4.40;1.00;;;;;;;14.77;71.73;101039.72;4987000;28;20197;-72
2023/09/17 10:28:21;;;;;;;4.45;0.95;;;;;;;14.77;72.14;101036.25;4988014;28;20051;-73
2023/09/17 10:30:54;;;;;;;4.65;0.98;;;;;;;14.77;71.20;101042.31;4989152;28;20054;-73
2023/09/17 10:33:25;;;;;;;1.55;0.77;;;;;;;14.77;72.06;101037.13;5013099;28;20046;-73
2023/09/17 10:35:57;;;;;;;2.13;0.85;;;;;;;14.73;72.73;101048.34;5004377;28;20140;-74
2023/09/17 10:38:27;;;;;;;2.63;0.88;;;;;;;14.66;72.80;101049.09;5007866;28;20124;-74
2023/09/17 10:40:57;;;;;;;5.03;0.85;;;;;;;14.63;72.56;101042.09;5006521;28;20050;-72
2023/09/17 10:43:28;;;;;;;4.53;1.10;;;;;;;14.65;72.06;101045.59;5007467;28;20057;-73
2023/09/17 10:45:58;;;;;;;3.03;0.93;;;;;;;14.64;71.17;101046.47;5011295;28;20088;-73
2023/09/17 10:48:28;;;;;;;3.40;1.10;;;;;;;14.63;71.66;101044.69;5005502;28;21215;-73
2023/09/17 10:50:57;;;;;;;3.25;1.05;;;;;;;14.64;72.47;101041.25;5005544;28;20133;-72
2023/09/17 10:53:26;;;;;;;4.70;1.20;;;;;;;14.65;72.34;101044.72;5008479;28;20050;-72
2023/09/17 10:56:05;;;;;;;1.80;0.60;;;;;;;14.64;71.98;101043.84;5007691;28;20084;-73
2023/09/17 10:58:39;;;;;;;2.88;1.02;;;;;;;14.67;71.63;101045.63;5011869;28;20131;-73
2023/09/17 11:01:10;;;;;;;2.63;1.05;;;;;;;14.65;71.80;101052.53;5008480;28;20050;-73
2023/09/17 11:03:41;;;;;;;4.30;0.85;;;;;;;14.64;72.33;101048.19;5011310;28;20058;-73
2023/09/17 11:06:16;;;;;;;2.88;0.95;;;;;;;14.63;71.67;101047.28;5004980;28;20057;-73
2023/09/17 11:08:45;;;;;;;3.03;0.88;;;;;;;14.61;71.03;101053.34;5007455;28;20050;-72
2023/09/17 11:11:19;;;;;;;3.45;0.93;;;;;;;14.56;70.87;101055.84;5003977;28;20578;-72
2023/09/17 11:13:51;;;;;;;2.30;0.93;;;;;;;14.51;70.90;101056.59;5011103;28;20053;-72
2023/09/17 11:16:21;;;;;;;3.85;0.70;;;;;;;14.47;70.78;101058.25;5006846;28;20111;-73
2023/09/17 11:19:14;;;;;;;6.57;1.10;;;;;;;14.43;71.05;101051.22;5001803;28;20065;-73
2023/09/17 11:21:44;;;;;;;2.92;1.02;;;;;;;14.40;72.21;101057.25;5009658;28;20156;-72
2023/09/17 11:24:17;;;;;;;3.15;1.33;;;;;;;14.38;71.76;101058.97;5006667;28;20145;-73
2023/09/17 11:26:46;;;;;;;;;;;;;;;14.35;72.30;101058.91;5006329;28;20049;-73
2023/09/17 11:29:16;;;;;;;9.13;1.77;;;;;;;14.33;71.77;101055.41;5005764;28;19929;-73
2023/09/17 11:32:08;;;;;;;0.82;0.60;;;;;;;14.31;72.19;101057.09;5007821;28;20073;-73
2023/09/17 11:34:38;;;;;;;3.72;0.82;;;;;;;14.27;73.39;101052.69;5004475;28;20582;-73
2023/09/17 11:37:07;;;;;;;2.95;0.85;;;;;;;14.23;73.45;101058.69;5009382;28;20054;-73
2023/09/17 11:39:37;;;;;;;2.55;0.90;;;;;;;14.17;74.16;101056.81;5008955;28;20402;-74
2023/09/17 11:42:09;;;;;;;2.70;0.93;;;;;;;14.12;74.23;101060.19;5003837;28;20053;-74